Time;durP1;ratioP1;P1;durP2;ratioP2;P2;SDS_P1;SDS_P2;PMS_P1;PMS_P2;Temp;Humidity;BMP_temperature;BMP_pressure;BME280_temperature;BME280_humidity;BME280_pressure;Samples;Min_cycle;Max_cycle;Signal;HPM_P1;HPM_P2
2022/10/28 00:01:32;;;;;;;17.92;8.93;;;16.40;99.90;;;;;;5054647;28;20370;-63
2022/10/28 00:03:59;;;;;;;14.68;7.43;;;16.40;99.90;;;;;;5054235;28;20044;-63
2022/10/28 00:06:33;;;;;;;13.32;7.40;;;16.40;99.90;;;;;;5054590;28;20037;-63
2022/10/28 00:09:00;;;;;;;12.75;7.55;;;16.40;99.90;;;;;;5053724;28;20107;-63
2022/10/28 00:11:29;;;;;;;17.40;8.00;;;16.40;99.90;;;;;;5036394;28;20049;-63
2022/10/28 00:13:56;;;;;;;20.53;9.00;;;16.30;99.90;;;;;;5052840;28;20095;-63
2022/10/28 00:16:26;;;;;;;15.27;7.53;;;16.30;99.90;;;;;;5052728;28;20308;-63
2022/10/28 00:18:53;;;;;;;11.82;7.57;;;16.20;99.90;;;;;;5053503;28;20048;-63
2022/10/28 00:21:22;;;;;;;14.88;7.50;;;16.20;99.90;;;;;;5053328;28;20045;-64
2022/10/28 00:23:49;;;;;;;21.85;6.75;;;16.10;99.90;;;;;;5053297;28;20103;-63
2022/10/28 00:26:18;;;;;;;11.75;7.35;;;16.10;99.90;;;;;;5053810;28;20045;-63
2022/10/28 00:28:46;;;;;;;17.48;7.80;;;16.00;99.90;;;;;;5036513;28;20049;-63
2022/10/28 00:31:15;;;;;;;15.25;6.68;;;16.00;99.90;;;;;;5052551;28;20051;-63
2022/10/28 00:33:42;;;;;;;15.55;8.32;;;15.90;99.90;;;;;;5052435;28;20052;-63
2022/10/28 00:36:13;;;;;;;14.70;7.60;;;15.90;99.90;;;;;;5054012;28;20461;-63
2022/10/28 00:38:40;;;;;;;18.52;8.30;;;15.90;99.90;;;;;;5036243;28;20126;-63
2022/10/28 00:41:07;;;;;;;11.45;6.80;;;15.90;99.90;;;;;;5052181;28;20076;-63
2022/10/28 00:43:45;;;;;;;16.38;7.75;;;15.80;99.90;;;;;;5053461;28;20485;-63
2022/10/28 00:46:37;;;;;;;13.63;6.75;;;15.80;99.90;;;;;;5053171;28;20056;-63
2022/10/28 00:49:36;;;;;;;15.02;7.78;;;15.70;99.90;;;;;;5052887;28;20080;-63
2022/10/28 00:52:05;;;;;;;;;;;15.70;99.90;;;;;;5030789;28;20525;-63
2022/10/28 00:54:32;;;;;;;16.58;8.07;;;15.70;99.90;;;;;;5085646;28;20271;-63
2022/10/28 00:56:59;;;;;;;13.35;7.60;;;15.60;99.90;;;;;;5035899;28;20041;-63
2022/10/28 00:59:28;;;;;;;21.08;9.25;;;15.60;99.90;;;;;;5035911;28;20107;-63
2022/10/28 01:01:55;;;;;;;17.30;8.85;;;15.50;99.90;;;;;;5052071;28;20500;-63
2022/10/28 01:04:22;;;;;;;14.73;7.13;;;15.50;99.90;;;;;;5051859;28;20465;-63
2022/10/28 01:06:49;;;;;;;14.85;8.38;;;15.50;99.90;;;;;;5052151;28;20044;-63
2022/10/28 01:09:16;;;;;;;15.70;8.48;;;15.50;99.90;;;;;;5035441;28;20063;-63
2022/10/28 01:11:47;;;;;;;14.65;8.52;;;15.50;99.90;;;;;;5053176;28;20124;-63
2022/10/28 01:14:38;;;;;;;13.55;7.22;;;15.50;99.90;;;;;;5051741;28;20052;-63
2022/10/28 01:17:23;;;;;;;15.27;7.85;;;15.50;99.90;;;;;;5052550;28;20045;-63
2022/10/28 01:20:02;;;;;;;17.20;8.13;;;15.50;99.90;;;;;;5052177;28;20103;-63
2022/10/28 01:22:37;;;;;;;16.83;8.32;;;15.50;99.90;;;;;;5052811;28;20091;-63
2022/10/28 01:25:29;;;;;;;20.33;8.57;;;15.50;99.90;;;;;;5051517;28;20040;-63
2022/10/28 01:28:20;;;;;;;18.67;8.48;;;15.50;99.90;;;;;;5052214;28;20098;-63
2022/10/28 01:31:05;;;;;;;18.88;8.98;;;15.50;99.90;;;;;;5053602;28;20041;-63
2022/10/28 01:33:45;;;;;;;16.95;8.77;;;15.50;99.90;;;;;;5052660;28;20110;-62
2022/10/28 01:36:39;;;;;;;21.33;9.75;;;15.50;99.90;;;;;;5036099;28;20095;-63
2022/10/28 01:39:33;;;;;;;17.65;9.48;;;15.50;99.90;;;;;;5035202;28;20107;-63
2022/10/28 01:42:25;;;;;;;19.25;9.50;;;15.50;99.90;;;;;;5038226;28;20110;-63
2022/10/28 01:45:09;;;;;;;22.15;9.32;;;15.50;99.90;;;;;;5053282;28;20139;-63
2022/10/28 01:47:37;;;;;;;22.13;10.68;;;15.50;99.90;;;;;;5036880;28;20140;-64
2022/10/28 01:50:07;;;;;;;18.20;9.13;;;15.50;99.90;;;;;;5052113;28;20090;-63
2022/10/28 01:52:34;;;;;;;22.70;9.55;;;15.50;99.90;;;;;;5051273;28;20048;-63
2022/10/28 01:55:16;;;;;;;14.75;9.23;;;15.50;99.90;;;;;;5051997;28;20048;-63
2022/10/28 01:57:42;;;;;;;17.90;9.50;;;15.50;99.90;;;;;;5051556;28;20438;-63
2022/10/28 02:00:10;;;;;;;16.52;9.25;;;15.50;99.90;;;;;;5034982;28;20091;-63
2022/10/28 02:02:37;;;;;;;15.85;9.48;;;15.50;99.90;;;;;;5051361;28;20396;-63
2022/10/28 02:05:26;;;;;;;21.52;10.88;;;15.60;99.90;;;;;;5053104;28;20110;-63
2022/10/28 02:07:54;;;;;;;19.55;9.20;;;15.60;99.90;;;;;;5048581;28;20075;-63
2022/10/28 02:10:22;;;;;;;22.35;8.75;;;15.70;99.90;;;;;;5034920;28;20131;-63
2022/10/28 02:12:50;;;;;;;16.10;10.55;;;15.70;99.90;;;;;;5052061;28;20496;-63
2022/10/28 02:15:29;;;;;;;17.02;9.45;;;15.70;99.90;;;;;;5068285;28;20068;-63
2022/10/28 02:18:17;;;;;;;15.30;9.47;;;15.70;99.90;;;;;;5053097;28;20045;-63
2022/10/28 02:20:52;;;;;;;15.63;8.75;;;15.80;99.90;;;;;;5051091;28;20040;-63
2022/10/28 02:23:38;;;;;;;21.67;9.68;;;15.70;99.90;;;;;;5052400;28;20047;-63
2022/10/28 02:26:26;;;;;;;9.85;7.60;;;15.70;99.90;;;;;;5052064;28;20500;-63
2022/10/28 02:29:04;;;;;;;19.35;8.10;;;15.70;99.90;;;;;;5051103;28;20041;-63
2022/10/28 02:31:33;;;;;;;17.20;9.33;;;15.70;99.90;;;;;;5051320;28;20048;-63
2022/10/28 02:34:09;;;;;;;18.45;8.68;;;15.70;99.90;;;;;;5051914;28;20053;-63
2022/10/28 02:36:38;;;;;;;16.60;8.95;;;15.70;99.90;;;;;;5054816;28;20483;-63
2022/10/28 02:39:05;;;;;;;17.38;9.35;;;15.60;99.90;;;;;;5055042;28;20041;-63
2022/10/28 02:41:50;;;;;;;18.42;8.73;;;15.60;99.90;;;;;;5054645;28;20038;-63
2022/10/28 02:44:20;;;;;;;19.33;8.05;;;15.50;99.90;;;;;;5054912;28;20041;-63
2022/10/28 02:46:48;;;;;;;16.27;9.25;;;15.50;99.90;;;;;;5054684;28;20098;-63
2022/10/28 02:49:15;;;;;;;18.42;9.20;;;15.50;99.90;;;;;;5054654;28;20041;-63
2022/10/28 02:51:51;;;;;;;16.77;9.25;;;15.40;99.90;;;;;;5055732;28;20041;-63
2022/10/28 02:54:25;;;;;;;19.98;9.55;;;15.40;99.90;;;;;;5055647;28;20411;-63
2022/10/28 02:57:05;;;;;;;16.83;9.85;;;15.50;99.90;;;;;;5054652;28;20041;-63
2022/10/28 02:59:32;;;;;;;17.15;10.48;;;15.50;99.90;;;;;;5055364;28;20086;-63
2022/10/28 03:01:59;;;;;;;18.48;9.93;;;15.50;99.90;;;;;;5071159;28;20045;-63
2022/10/28 03:04:26;;;;;;;15.40;9.63;;;15.50;99.90;;;;;;5055739;28;20099;-63
2022/10/28 03:06:53;;;;;;;20.25;10.30;;;15.50;99.90;;;;;;5054247;28;20102;-63
2022/10/28 03:09:20;;;;;;;18.60;10.18;;;15.50;99.90;;;;;;5055350;28;20127;-63
2022/10/28 03:11:46;;;;;;;21.92;10.05;;;15.50;99.90;;;;;;5056395;28;20045;-63
2022/10/28 03:14:13;;;;;;;19.58;9.80;;;15.50;99.90;;;;;;5054281;28;20091;-63
2022/10/28 03:16:41;;;;;;;20.63;9.55;;;15.50;99.90;;;;;;5054364;28;20107;-63
2022/10/28 03:19:08;;;;;;;18.30;11.10;;;15.50;99.90;;;;;;5056141;28;20483;-63
2022/10/28 03:21:40;;;;;;;15.98;8.95;;;15.50;99.90;;;;;;5070703;28;20052;-65
2022/10/28 03:24:06;;;;;;;16.65;9.35;;;15.50;99.90;;;;;;5055095;28;20469;-63
2022/10/28 03:26:33;;;;;;;16.13;9.90;;;15.50;99.90;;;;;;5054992;28;20049;-63
2022/10/28 03:29:00;;;;;;;14.73;9.35;;;15.50;99.90;;;;;;5038203;28;20110;-63
2022/10/28 03:31:27;;;;;;;17.02;9.63;;;15.50;99.90;;;;;;5055085;28;20465;-63
2022/10/28 03:33:54;;;;;;;19.00;10.80;;;15.50;99.90;;;;;;5053566;28;20048;-63
2022/10/28 03:36:21;;;;;;;17.17;9.35;;;15.50;99.90;;;;;;5054698;28;20098;-63
2022/10/28 03:38:48;;;;;;;16.20;9.18;;;15.40;99.90;;;;;;5053750;28;20045;-63
2022/10/28 03:41:14;;;;;;;15.63;8.30;;;15.40;99.90;;;;;;5054346;28;20098;-63
2022/10/28 03:43:41;;;;;;;15.55;8.68;;;15.40;99.90;;;;;;5055634;28;20359;-63
2022/10/28 03:46:08;;;;;;;16.00;8.30;;;15.40;99.90;;;;;;5054656;28;20384;-63
2022/10/28 03:48:35;;;;;;;13.60;7.93;;;15.40;99.90;;;;;;5054378;28;20045;-63
2022/10/28 03:51:02;;;;;;;18.92;8.93;;;15.30;99.90;;;;;;5053640;28;20049;-63
2022/10/28 03:53:29;;;;;;;16.50;9.00;;;15.30;99.90;;;;;;5054525;28;20040;-63
2022/10/28 03:55:58;;;;;;;24.85;9.75;;;15.30;99.90;;;;;;5053529;28;20041;-63
2022/10/28 03:58:25;;;;;;;13.18;8.13;;;15.30;99.90;;;;;;5053166;28;20099;-63
2022/10/28 04:00:52;;;;;;;16.95;9.30;;;15.30;99.90;;;;;;5052934;28;20045;-63
2022/10/28 04:03:20;;;;;;;13.52;8.05;;;15.30;99.90;;;;;;5037319;28;20326;-63
2022/10/28 04:05:50;;;;;;;20.63;9.88;;;15.30;99.90;;;;;;5054977;28;20051;-63
2022/10/28 04:08:17;;;;;;;18.90;8.90;;;15.40;99.90;;;;;;5052926;28;20489;-63
2022/10/28 04:10:44;;;;;;;19.50;9.02;;;15.50;99.90;;;;;;5053007;28;20095;-63
2022/10/28 04:13:13;;;;;;;;;;;15.60;99.90;;;;;;5055235;28;20071;-63
2022/10/28 04:15:40;;;;;;;12.80;8.13;;;15.70;99.90;;;;;;5086043;28;19916;-63
2022/10/28 04:18:08;;;;;;;14.40;8.00;;;15.80;99.90;;;;;;5054703;28;20087;-63
2022/10/28 04:20:35;;;;;;;14.25;8.23;;;15.90;99.90;;;;;;5052624;28;20405;-64
2022/10/28 04:23:01;;;;;;;20.83;8.80;;;16.10;99.90;;;;;;5052569;28;20527;-63
2022/10/28 04:25:29;;;;;;;20.40;8.75;;;16.20;99.90;;;;;;5053791;28;20055;-63
2022/10/28 04:27:56;;;;;;;16.58;8.80;;;16.20;99.90;;;;;;5054363;28;20080;-64
2022/10/28 04:30:23;;;;;;;20.17;8.70;;;16.30;99.90;;;;;;5053414;28;20041;-64
2022/10/28 04:32:50;;;;;;;20.83;8.57;;;16.30;99.90;;;;;;5053672;28;20045;-64
2022/10/28 04:35:17;;;;;;;15.35;7.50;;;16.30;99.90;;;;;;5053662;28;20086;-64
2022/10/28 04:37:44;;;;;;;22.85;9.02;;;16.30;99.90;;;;;;5052385;28;20045;-64
2022/10/28 04:40:11;;;;;;;18.00;9.77;;;16.40;99.90;;;;;;5053837;28;20096;-63
2022/10/28 04:42:38;;;;;;;18.45;10.70;;;16.40;99.90;;;;;;5053467;28;20099;-64
2022/10/28 04:45:05;;;;;;;21.92;10.25;;;16.40;99.90;;;;;;5054263;28;20045;-64
2022/10/28 04:47:32;;;;;;;24.05;9.43;;;16.30;99.90;;;;;;5069095;28;20488;-63
2022/10/28 04:49:59;;;;;;;23.67;8.82;;;16.40;99.90;;;;;;5052051;28;20076;-64
2022/10/28 04:52:26;;;;;;;22.02;9.65;;;16.40;99.90;;;;;;5053275;28;20040;-63
2022/10/28 04:54:53;;;;;;;20.42;8.30;;;16.40;99.90;;;;;;5052010;28;20041;-64
2022/10/28 04:57:20;;;;;;;21.50;10.20;;;16.30;99.90;;;;;;5053049;28;20041;-63
2022/10/28 04:59:47;;;;;;;27.73;10.63;;;16.40;99.90;;;;;;5053169;28;20107;-63
2022/10/28 05:02:13;;;;;;;18.17;8.85;;;16.40;99.90;;;;;;5052121;28;20044;-63
2022/10/28 05:04:40;;;;;;;23.38;9.90;;;16.40;99.90;;;;;;5053064;28;20128;-63
2022/10/28 05:07:08;;;;;;;20.63;9.82;;;16.40;99.90;;;;;;5054002;28;20099;-63
2022/10/28 05:09:35;;;;;;;21.50;10.57;;;16.40;99.90;;;;;;5035446;28;20037;-64
2022/10/28 05:12:01;;;;;;;18.98;9.13;;;16.40;99.90;;;;;;5053561;28;20076;-63
2022/10/28 05:14:28;;;;;;;18.17;10.32;;;16.40;99.90;;;;;;5052012;28;20091;-63
2022/10/28 05:16:55;;;;;;;21.52;10.15;;;16.40;99.90;;;;;;5053190;28;20052;-63
2022/10/28 05:19:22;;;;;;;21.67;9.52;;;16.40;99.90;;;;;;5052544;28;20041;-63
2022/10/28 05:21:49;;;;;;;17.48;8.88;;;16.40;99.90;;;;;;5052879;28;20037;-63
2022/10/28 05:24:16;;;;;;;21.25;9.80;;;16.40;99.90;;;;;;5051734;28;20045;-63
2022/10/28 05:26:43;;;;;;;23.45;8.77;;;16.40;99.90;;;;;;5051753;28;20047;-63
2022/10/28 05:29:09;;;;;;;15.40;8.60;;;16.40;99.90;;;;;;5052825;28;20041;-63
2022/10/28 05:31:36;;;;;;;14.60;7.45;;;16.40;99.90;;;;;;5051380;28;20044;-63
2022/10/28 05:34:06;;;;;;;18.05;9.00;;;16.40;99.90;;;;;;5052903;28;20037;-63
2022/10/28 05:36:33;;;;;;;16.30;7.43;;;16.40;99.90;;;;;;5035378;28;20420;-64
2022/10/28 05:39:00;;;;;;;16.85;7.28;;;16.50;99.90;;;;;;5051688;28;20049;-63
2022/10/28 05:41:27;;;;;;;15.45;7.75;;;16.50;99.90;;;;;;5052928;28;20428;-63
2022/10/28 05:43:54;;;;;;;15.73;7.45;;;16.50;99.90;;;;;;5052762;28;20380;-64
2022/10/28 05:46:21;;;;;;;16.30;8.23;;;16.50;99.90;;;;;;5051202;28;20041;-64
2022/10/28 05:48:48;;;;;;;14.32;6.43;;;16.50;99.90;;;;;;5035232;28;20076;-64
2022/10/28 05:51:15;;;;;;;14.30;6.38;;;16.50;99.90;;;;;;5051870;28;20041;-64
2022/10/28 05:53:43;;;;;;;16.58;7.20;;;16.50;99.90;;;;;;5051344;28;20084;-63
2022/10/28 05:56:10;;;;;;;13.85;6.90;;;16.60;99.90;;;;;;5052082;28;20398;-63
2022/10/28 05:58:36;;;;;;;14.23;7.13;;;16.60;99.90;;;;;;5052456;28;20049;-63
2022/10/28 06:01:07;;;;;;;22.20;7.93;;;16.60;99.90;;;;;;5052418;28;20045;-63
2022/10/28 06:03:34;;;;;;;21.00;7.05;;;16.50;99.90;;;;;;5053010;28;20037;-63
2022/10/28 06:06:01;;;;;;;26.25;7.63;;;16.60;99.90;;;;;;5052623;28;20128;-63
2022/10/28 06:08:28;;;;;;;16.77;6.60;;;16.50;99.90;;;;;;5051278;28;20110;-63
2022/10/28 06:10:54;;;;;;;16.83;6.72;;;16.50;99.90;;;;;;5057040;28;20461;-63
2022/10/28 06:13:21;;;;;;;15.93;7.60;;;16.50;99.90;;;;;;5056667;28;20049;-63
2022/10/28 06:15:55;;;;;;;15.90;6.70;;;16.50;99.90;;;;;;5055375;28;20048;-63
2022/10/28 06:18:22;;;;;;;15.27;6.78;;;16.50;99.90;;;;;;5055016;28;20088;-63
2022/10/28 06:21:07;;;;;;;20.73;8.05;;;16.40;99.90;;;;;;5055619;28;20514;-64
2022/10/28 06:23:34;;;;;;;101.50;80.63;;;16.40;99.90;;;;;;5038779;28;20045;-64
2022/10/28 06:26:02;;;;;;;30.05;13.35;;;16.40;99.90;;;;;;5055642;28;20048;-64
2022/10/28 06:28:29;;;;;;;23.75;8.88;;;16.40;99.90;;;;;;5071490;28;20041;-64
2022/10/28 06:31:03;;;;;;;24.00;7.18;;;16.40;99.90;;;;;;5054657;28;20128;-64
2022/10/28 06:33:32;;;;;;;15.95;7.15;;;16.40;99.90;;;;;;5054745;28;20072;-64
2022/10/28 06:35:59;;;;;;;19.17;9.15;;;16.40;99.90;;;;;;5057073;28;20049;-63
2022/10/28 06:38:26;;;;;;;32.70;20.38;;;16.40;99.90;;;;;;5054667;28;20045;-63
2022/10/28 06:40:53;;;;;;;18.60;9.68;;;16.40;99.90;;;;;;5054633;28;20473;-63
2022/10/28 06:43:20;;;;;;;17.83;7.97;;;16.50;99.90;;;;;;5038477;28;20048;-63
2022/10/28 06:45:52;;;;;;;14.63;6.72;;;16.40;99.90;;;;;;5055432;28;20054;-63
2022/10/28 06:48:19;;;;;;;14.43;6.80;;;16.50;99.90;;;;;;5054643;28;20053;-62
2022/10/28 06:50:46;;;;;;;22.33;7.28;;;16.50;99.90;;;;;;5054517;28;20056;-63
2022/10/28 06:53:13;;;;;;;18.20;6.68;;;16.50;99.90;;;;;;5056093;28;20102;-64
2022/10/28 06:55:39;;;;;;;19.33;7.40;;;16.50;99.90;;;;;;5054855;28;20090;-64
2022/10/28 06:58:06;;;;;;;17.85;6.40;;;16.60;99.90;;;;;;5055108;28;20526;-64
2022/10/28 07:00:33;;;;;;;15.88;6.57;;;16.60;99.90;;;;;;5056022;28;20118;-64
2022/10/28 07:03:00;;;;;;;17.55;6.75;;;16.60;99.90;;;;;;5055149;28;20084;-64
2022/10/28 07:05:27;;;;;;;19.33;7.15;;;16.60;99.90;;;;;;5054897;28;20048;-64
2022/10/28 07:07:54;;;;;;;19.27;7.15;;;16.70;99.90;;;;;;5054375;28;20098;-64
2022/10/28 07:10:22;;;;;;;19.65;6.57;;;16.70;99.90;;;;;;5054137;28;20049;-64
2022/10/28 07:12:51;;;;;;;20.02;7.05;;;16.70;99.90;;;;;;5055042;28;20048;-64
2022/10/28 07:15:19;;;;;;;18.67;6.88;;;16.70;99.90;;;;;;5037919;28;20057;-63
2022/10/28 07:17:56;;;;;;;19.38;7.57;;;16.70;99.90;;;;;;5055408;28;20102;-63
2022/10/28 07:20:24;;;;;;;15.05;7.13;;;16.70;99.90;;;;;;5037343;28;20041;-63
2022/10/28 07:22:58;;;;;;;18.80;7.28;;;16.70;99.90;;;;;;5037620;28;20075;-63
2022/10/28 07:25:26;;;;;;;23.17;7.65;;;16.70;99.90;;;;;;5054959;28;20376;-64
2022/10/28 07:27:53;;;;;;;21.80;7.25;;;16.70;99.90;;;;;;5054181;28;20353;-64
2022/10/28 07:30:20;;;;;;;18.92;7.15;;;16.70;99.90;;;;;;5055355;28;20049;-61
2022/10/28 07:32:47;;;;;;;20.73;8.35;;;16.70;99.90;;;;;;5056243;28;20048;-61
2022/10/28 07:35:14;;;;;;;17.45;7.43;;;16.70;99.90;;;;;;5053974;28;20150;-61
2022/10/28 07:37:41;;;;;;;16.33;5.90;;;16.80;99.90;;;;;;5055148;28;20190;-62
2022/10/28 07:40:08;;;;;;;18.17;6.85;;;16.80;99.90;;;;;;5054288;28;20049;-61
2022/10/28 07:42:35;;;;;;;20.95;7.10;;;16.80;99.90;;;;;;5053590;28;20071;-61
2022/10/28 07:45:02;;;;;;;15.13;7.22;;;16.80;99.90;;;;;;5054802;28;20044;-61
2022/10/28 07:47:29;;;;;;;21.35;6.65;;;16.80;99.90;;;;;;5037019;28;20505;-61
2022/10/28 07:49:56;;;;;;;20.27;6.40;;;16.80;99.90;;;;;;5037116;28;20087;-61
2022/10/28 07:52:23;;;;;;;20.48;8.60;;;16.80;99.90;;;;;;5054460;28;20041;-62
2022/10/28 07:54:50;;;;;;;141.48;126.32;;;16.90;99.90;;;;;;5053371;28;20103;-61
2022/10/28 07:57:18;;;;;;;26.42;16.42;;;16.90;99.90;;;;;;5054340;28;20036;-61
2022/10/28 07:59:44;;;;;;;21.23;9.20;;;17.00;99.90;;;;;;5054462;28;20087;-62
2022/10/28 08:02:19;;;;;;;15.95;7.15;;;17.00;99.90;;;;;;5053674;28;20041;-62
2022/10/28 08:04:46;;;;;;;17.08;7.45;;;17.00;99.90;;;;;;5036608;28;20041;-61
2022/10/28 08:07:13;;;;;;;23.80;7.20;;;17.10;99.90;;;;;;5036776;28;20044;-64
2022/10/28 08:09:40;;;;;;;26.17;7.75;;;17.10;99.90;;;;;;5052834;28;20091;-64
2022/10/28 08:12:07;;;;;;;29.17;8.90;;;17.10;99.90;;;;;;5053658;28;20457;-65
2022/10/28 08:14:34;;;;;;;19.70;6.57;;;17.10;99.90;;;;;;5036418;28;20049;-65
2022/10/28 08:17:01;;;;;;;16.77;8.10;;;17.20;99.90;;;;;;5053977;28;20049;-65
2022/10/28 08:19:28;;;;;;;21.85;7.00;;;17.20;99.90;;;;;;5052675;28;20045;-64
2022/10/28 08:21:55;;;;;;;20.52;7.78;;;17.30;99.90;;;;;;5053851;28;20044;-65
2022/10/28 08:24:22;;;;;;;21.15;7.82;;;17.40;99.90;;;;;;5052563;28;20045;-65
2022/10/28 08:26:49;;;;;;;15.13;6.25;;;17.50;99.90;;;;;;5052613;28;20538;-65
2022/10/28 08:29:16;;;;;;;15.05;6.25;;;17.50;99.90;;;;;;5053477;28;20045;-65
2022/10/28 08:31:43;;;;;;;17.38;6.40;;;17.60;99.90;;;;;;5053054;28;20350;-65
2022/10/28 08:34:10;;;;;;;14.38;6.93;;;17.60;99.90;;;;;;5053235;28;20330;-65
2022/10/28 08:36:37;;;;;;;19.95;7.28;;;17.70;99.90;;;;;;5052212;28;20041;-65
2022/10/28 08:39:04;;;;;;;17.00;6.07;;;17.70;99.90;;;;;;5054104;28;20377;-65
2022/10/28 08:41:34;;;;;;;16.52;6.32;;;17.80;99.90;;;;;;5052381;28;20041;-65
2022/10/28 08:44:40;;;;;;;17.42;6.05;;;17.80;99.90;;;;;;5053616;28;20047;-65
2022/10/28 08:47:16;;;;;;;18.50;5.38;;;17.90;99.90;;;;;;5030525;28;20052;-66
2022/10/28 08:49:43;;;;;;;14.95;6.28;;;17.90;99.90;;;;;;5052896;28;20048;-65
2022/10/28 08:52:33;;;;;;;17.88;5.97;;;18.00;99.90;;;;;;5036670;28;20040;-65
2022/10/28 08:55:11;;;;;;;14.73;5.25;;;18.00;99.90;;;;;;5053090;28;20079;-65
2022/10/28 08:57:40;;;;;;;15.18;5.80;;;18.00;99.90;;;;;;5021059;28;20045;-65
2022/10/28 09:00:21;;;;;;;15.35;5.30;;;18.00;99.90;;;;;;5035340;28;20048;-65
2022/10/28 09:02:57;;;;;;;25.85;7.03;;;18.10;99.90;;;;;;5051998;28;20087;-65
2022/10/28 09:05:25;;;;;;;20.23;6.32;;;18.10;99.90;;;;;;5053446;28;20056;-65
2022/10/28 09:07:52;;;;;;;18.60;5.28;;;18.00;99.90;;;;;;5053594;28;20136;-65
2022/10/28 09:10:41;;;;;;;15.93;5.70;;;18.00;99.90;;;;;;5035651;28;20465;-65
2022/10/28 09:13:24;;;;;;;12.77;5.45;;;18.00;99.90;;;;;;5053486;28;20162;-65
2022/10/28 09:16:03;;;;;;;16.48;6.45;;;18.00;99.90;;;;;;5036628;28;20045;-65
2022/10/28 09:18:52;;;;;;;17.65;5.32;;;18.10;99.90;;;;;;5037042;28;20131;-65
2022/10/28 09:21:28;;;;;;;17.27;4.95;;;18.20;99.90;;;;;;5051608;28;20049;-65
2022/10/28 09:23:56;;;;;;;13.38;4.63;;;18.30;99.90;;;;;;5053711;28;20045;-65
2022/10/28 09:26:32;;;;;;;15.93;5.20;;;18.30;99.90;;;;;;5051793;28;20106;-65
2022/10/28 09:29:21;;;;;;;12.73;5.55;;;18.40;99.90;;;;;;5051641;28;20418;-65
2022/10/28 09:32:17;;;;;;;10.90;4.70;;;18.40;99.90;;;;;;5052674;28;20103;-66
2022/10/28 09:34:58;;;;;;;9.77;4.03;;;18.40;99.90;;;;;;5053377;28;20143;-65
2022/10/28 09:37:43;;;;;;;13.93;4.53;;;18.50;99.90;;;;;;5051373;28;20045;-68
2022/10/28 09:40:20;;;;;;;75.40;53.97;;;18.60;99.90;;;;;;5035858;28;20131;-69
2022/10/28 09:43:18;;;;;;;108.55;62.60;;;18.60;99.90;;;;;;5052029;28;20045;-64
2022/10/28 09:45:46;;;;;;;21.73;8.57;;;18.70;99.90;;;;;;5053145;28;20041;-65
2022/10/28 09:48:18;;;;;;;24.92;6.18;;;18.70;99.90;;;;;;5018903;28;20053;-64
2022/10/28 09:50:45;;;;;;;12.05;4.10;;;18.70;99.90;;;;;;5051718;28;20041;-66
2022/10/28 09:53:32;;;;;;;14.20;4.32;;;18.80;99.90;;;;;;5034776;28;20060;-63
2022/10/28 09:56:03;;;;;;;13.50;3.60;;;18.70;99.90;;;;;;5046315;28;20044;-63
2022/10/28 09:58:31;;;;;;;11.35;3.53;;;18.70;99.90;;;;;;5035024;28;20049;-63
2022/10/28 10:00:58;;;;;;;9.52;3.78;;;18.70;99.90;;;;;;5034770;28;20041;-63
2022/10/28 10:03:25;;;;;;;11.48;3.88;;;18.70;99.90;;;;;;5035672;28;20045;-63
2022/10/28 10:05:52;;;;;;;11.10;3.33;;;18.70;99.90;;;;;;5051432;28;20435;-63
2022/10/28 10:08:20;;;;;;;7.57;2.95;;;18.70;99.90;;;;;;5051792;28;20049;-63
2022/10/28 10:11:00;;;;;;;5.97;2.97;;;18.70;99.90;;;;;;5051011;28;20045;-63
2022/10/28 10:13:28;;;;;;;7.15;2.67;;;18.70;99.90;;;;;;5051176;28;20049;-63
2022/10/28 10:15:57;;;;;;;8.93;2.30;;;18.60;99.90;;;;;;5051374;28;20455;-63
2022/10/28 10:18:31;;;;;;;6.72;1.95;;;18.60;99.90;;;;;;5018399;28;20091;-63
2022/10/28 10:20:58;;;;;;;7.05;2.20;;;18.60;99.90;;;;;;5051909;28;20377;-63
2022/10/28 10:23:28;;;;;;;5.88;2.42;;;18.50;99.90;;;;;;5052479;28;20098;-63
2022/10/28 10:26:09;;;;;;;4.90;1.92;;;18.50;99.90;;;;;;5053214;28;20122;-63
2022/10/28 10:28:58;;;;;;;4.57;1.77;;;18.40;99.90;;;;;;5052225;28;20041;-63
2022/10/28 10:31:26;;;;;;;6.63;2.53;;;18.40;99.90;;;;;;5050716;28;20441;-63
2022/10/28 10:33:54;;;;;;;7.18;2.13;;;18.40;99.90;;;;;;5034457;28;20095;-63
2022/10/28 10:36:30;;;;;;;5.78;2.42;;;18.30;99.90;;;;;;5050563;28;20378;-63
2022/10/28 10:39:01;;;;;;;9.02;2.25;;;18.30;99.90;;;;;;5035002;28;20449;-63
2022/10/28 10:41:41;;;;;;;7.10;2.25;;;18.20;99.90;;;;;;5050681;28;20102;-63
2022/10/28 10:44:20;;;;;;;6.15;2.00;;;18.10;99.90;;;;;;5051686;28;20044;-63
2022/10/28 10:47:00;;;;;;;6.68;2.45;;;18.10;99.90;;;;;;5051633;28;20048;-63
2022/10/28 10:49:32;;;;;;;9.05;2.25;;;18.10;99.90;;;;;;5052420;28;20045;-63
2022/10/28 10:52:09;;;;;;;11.07;2.83;;;18.10;99.90;;;;;;5050781;28;20049;-63
2022/10/28 10:54:36;;;;;;;8.13;2.28;;;18.10;99.90;;;;;;5036409;28;20048;-63
2022/10/28 10:57:07;;;;;;;6.97;2.38;;;18.00;99.90;;;;;;5037945;28;20431;-63
2022/10/28 10:59:36;;;;;;;5.97;2.00;;;18.10;99.90;;;;;;5054142;28;20081;-63
2022/10/28 11:02:03;;;;;;;7.20;2.50;;;18.20;99.90;;;;;;5054354;28;20045;-63
2022/10/28 11:04:35;;;;;;;5.97;1.95;;;18.30;99.90;;;;;;5055351;28;20037;-63
2022/10/28 11:07:02;;;;;;;7.43;2.08;;;18.40;99.90;;;;;;5054325;28;20369;-63
2022/10/28 11:09:33;;;;;;;11.57;5.40;;;18.60;99.90;;;;;;5055123;28;20389;-63
2022/10/28 11:12:00;;;;;;;7.20;2.80;;;18.70;99.90;;;;;;5037696;28;20067;-63
2022/10/28 11:14:29;;;;;;;7.25;2.05;;;18.80;99.90;;;;;;5037427;28;20055;-63
2022/10/28 11:16:57;;;;;;;8.75;1.83;;;18.80;99.90;;;;;;5053690;28;20045;-63
2022/10/28 11:19:32;;;;;;;10.85;2.47;;;18.80;99.90;;;;;;5037382;28;20107;-63
2022/10/28 11:22:14;;;;;;;7.15;2.15;;;18.90;99.90;;;;;;5053976;28;20051;-63
2022/10/28 11:24:51;;;;;;;6.55;2.30;;;18.90;99.90;;;;;;5054231;28;20365;-63
2022/10/28 11:28:00;;;;;;;80.55;69.60;;;18.90;99.90;;;;;;5053529;28;20041;-62
2022/10/28 11:30:52;;;;;;;48.75;28.35;;;18.90;99.90;;;;;;5050176;28;20140;-63
2022/10/28 11:33:43;;;;;;;13.13;7.20;;;18.80;99.90;;;;;;5044086;28;20052;-66
2022/10/28 11:36:27;;;;;;;9.50;3.20;;;18.70;99.90;;;;;;5039076;28;20049;-63
2022/10/28 11:39:04;;;;;;;4.72;2.25;;;18.70;99.90;;;;;;5054312;28;20388;-65
2022/10/28 11:41:53;;;;;;;12.07;3.35;;;18.60;99.90;;;;;;5037067;28;20041;-65
2022/10/28 11:44:43;;;;;;;5.93;2.38;;;18.50;99.90;;;;;;5053409;28;20061;-65
2022/10/28 11:47:33;;;;;;;6.00;2.83;;;18.40;99.90;;;;;;5037722;28;20122;-64
2022/10/28 11:50:22;;;;;;;7.63;3.25;;;18.40;99.90;;;;;;5054544;28;20056;-62
2022/10/28 11:52:58;;;;;;;7.60;2.70;;;18.40;99.90;;;;;;5053394;28;20108;-63
2022/10/28 11:55:32;;;;;;;9.57;3.40;;;18.40;99.90;;;;;;5054211;28;20053;-63
2022/10/28 11:58:11;;;;;;;8.48;2.42;;;18.40;99.90;;;;;;5037030;28;20080;-63
2022/10/28 12:00:54;;;;;;;6.75;2.20;;;18.40;99.90;;;;;;5021284;28;20048;-63
2022/10/28 12:03:35;;;;;;;7.57;2.40;;;18.30;99.90;;;;;;5053343;28;20049;-63
2022/10/28 12:06:15;;;;;;;7.75;2.45;;;18.40;99.90;;;;;;5054876;28;20049;-63
2022/10/28 12:08:59;;;;;;;7.65;2.72;;;18.40;99.90;;;;;;5052977;28;20052;-63
2022/10/28 12:11:38;;;;;;;7.53;2.42;;;18.40;99.90;;;;;;5052649;28;20114;-61
2022/10/28 12:14:37;;;;;;;13.13;3.35;;;18.40;99.90;;;;;;5053936;28;20455;-63
2022/10/28 12:17:11;;;;;;;;;;;18.50;99.90;;;;;;5052338;28;20044;-64
2022/10/28 12:20:02;;;;;;;11.50;2.75;;;18.50;99.90;;;;;;5053040;28;19921;-63
2022/10/28 12:22:44;;;;;;;9.45;2.75;;;18.60;99.90;;;;;;5052639;28;20040;-63
2022/10/28 12:25:17;;;;;;;9.52;2.00;;;18.70;99.90;;;;;;5038879;28;20106;-62
2022/10/28 12:27:45;;;;;;;6.13;1.95;;;18.80;99.90;;;;;;5036321;28;20045;-62
2022/10/28 12:30:12;;;;;;;7.32;2.80;;;18.90;99.90;;;;;;5036244;28;20473;-64
2022/10/28 12:32:39;;;;;;;10.60;3.75;;;18.90;99.90;;;;;;5053604;28;20036;-64
2022/10/28 12:35:19;;;;;;;8.13;2.78;;;19.00;99.90;;;;;;5036210;28;20041;-63
2022/10/28 12:37:50;;;;;;;8.90;2.70;;;19.00;99.90;;;;;;5052583;28;20041;-63
2022/10/28 12:40:34;;;;;;;13.55;3.25;;;19.00;99.90;;;;;;5053670;28;20037;-63
2022/10/28 12:43:12;;;;;;;8.02;2.10;;;19.00;99.90;;;;;;5036188;28;20049;-62
2022/10/28 12:45:39;;;;;;;13.50;5.03;;;19.00;99.90;;;;;;5054410;28;20052;-62
2022/10/28 12:48:14;;;;;;;8.48;3.05;;;19.00;99.90;;;;;;5036089;28;20048;-61
2022/10/28 12:50:51;;;;;;;10.32;2.72;;;18.90;99.90;;;;;;5052385;28;20041;-62
2022/10/28 12:53:25;;;;;;;5.78;1.98;;;18.90;99.90;;;;;;5036935;28;20139;-62
2022/10/28 12:55:52;;;;;;;9.65;3.00;;;19.00;99.90;;;;;;5054238;28;20048;-62
2022/10/28 12:58:19;;;;;;;8.50;2.50;;;18.90;99.90;;;;;;5053636;28;20057;-62
2022/10/28 13:00:48;;;;;;;11.13;3.33;;;19.00;99.90;;;;;;5051886;28;20045;-62
2022/10/28 13:03:15;;;;;;;;;;;19.00;99.90;;;;;;5052613;28;20049;-62